Kempsey, United Kingdom
Current Conditions -  °F | °C
As of 9:20 AM on Monday 24 Nov 2014 (Local Time) from EGBJ Reporting Station
Clear Clear  
Wind Chill: 34°   Ceiling: Unl
Heat Index: 34°   Visibility: 6mi
Dew Point: 34°   Wind: 0mph
Humidity: 100%   Direction: NA
Pressure: 30.33"   Gusts: NA
Location:  52.14°N, 2.22°W
Report Text: EGBJ 240920Z 00000KT CAVOK 01/01 Q1027
Loading
Personal Weather Stations






























Interactive Weather Map New forecast layout! Learn more

10-Day Weather Forecast

Advertisements
Track Severe Weather on mobile